Watertown, SD

1:55 PM CDT on August 30, 2014 (GMT -0500)
East side of Watertown, SD | Change Station
CLOSE
Current Station
Personal Weather Station
Location: Watertown, SD
Elevation: 1732 ft
Nearby Weather Stations

Elev 1732 ft 44.89 °N, 97.09 °W | Updated 8 minutes ago

Overcast
Overcast
65.8 °F
Feels Like 65.8 °F
N
1.7
Wind Variable Wind from ESE

Today
High -- | Low -- °F
--% Chance of Precip.
Yesterday
High -- | Low -- °F
Precip. -- in
6:48 AM 8:08 PM
Waxing Crescent, 24% visible
Pressure 29.91 in
Visibility 10.0 miles
Clouds Overcast 1100 ft
Dew Point 60 °F
Humidity 81%
Rainfall 0.00 in
Snow Depth Not available.
UV 3 out of 12
Pollen 9.30 out of 12
Air Quality Not available.
Flu Activity Not available.
METAR KATY 301753Z AUTO 32005KT 10SM OVC011 17/14 A2992 RMK AO2 SLP127 T01720139 10172 20150 58004

More Conditions Fewer Conditions

Pressure 29.91 in
Visibility 10.0 miles
Clouds Overcast 1100 ft
Dew Point 60 °F
Humidity 81%
Rainfall 0.00 in
Snow Depth Not available.
UV 3 out of 12
Pollen 9.30 out of 12
Air Quality Not available.
Flu Activity Not available.
METAR KATY 301753Z AUTO 32005KT 10SM OVC011 17/14 A2992 RMK AO2 SLP127 T01720139 10172 20150 58004

More Conditions Fewer Conditions

10-Day Weather Forecast

Almanac

Astronomy

Aug. 30, 2014 Rise Set
Actual Time 6:48 AM CDT 8:08 PM CDT
Civil Twilight 6:17 AM CDT 8:39 PM CDT
Nautical Twilight 5:41 AM CDT 9:15 PM CDT
Astronomical Twilight 5:02 AM CDT 9:54 PM CDT
Moon 11:51 AM CDT 10:29 PM CDT
Length of Visible Light 14h 21m
Length of Day
13h 20m
Tomorrow will be 2m 59s shorter.
Waxing Crescent, 24% of the Moon is Illuminated
Today
Waxing Crescent
Sep 2
First Quarter
Sep 8
Full
Sep 15
Last Quarter
Sep 24
New

Today's Extremes

State Highs State Lows

Community

WunderPhotos

Upload Photos

1,748,593 photos uploaded!

WunderBlogs® & News

Nearby

Snow Depth

Station Depth Elevation
Blind Park 0 in 6890 ft

Earthquake Activity

City Distance Mag. Time & Date
No recent earthquake activity has been reported nearby.
Minimum magnitude displayed is 2.5.

Coastal Water Temperatures

Place Temperature
No Stations Reporting

Nearby Weather Stations